Time;durP1;ratioP1;P1;durP2;ratioP2;P2;SDS_P1;SDS_P2;PMS_P1;PMS_P2;Temp;Humidity;BMP_temperature;BMP_pressure;BME280_temperature;BME280_humidity;BME280_pressure;Samples;Min_cycle;Max_cycle;Signal;HPM_P1;HPM_P2
2022/02/17 00:01:48;;;;;;;0.07;0.00;;;12.80;99.90;;;;;;4193490;28;20232;-75
2022/02/17 00:03:51;;;;;;;0.20;0.10;;;12.80;99.90;;;;;;4195238;28;20207;-75
2022/02/17 00:05:53;;;;;;;0.60;0.30;;;12.90;99.90;;;;;;4195119;28;20633;-74
2022/02/17 00:07:56;;;;;;;0.10;0.10;;;12.90;99.90;;;;;;4197485;28;20667;-76
2022/02/17 00:09:57;;;;;;;0.10;0.10;;;13.00;99.90;;;;;;4196117;28;20248;-74
2022/02/17 00:11:59;;;;;;;0.43;0.10;;;13.00;99.90;;;;;;4195892;28;20232;-75
2022/02/17 00:14:01;;;;;;;0.10;0.10;;;13.00;99.90;;;;;;4197981;28;20591;-75
2022/02/17 00:16:03;;;;;;;0.43;0.20;;;13.00;99.90;;;;;;4196553;28;20620;-75
2022/02/17 00:18:12;;;;;;;0.30;0.17;;;13.00;99.90;;;;;;4198203;28;20221;-75
2022/02/17 00:20:15;;;;;;;0.00;0.00;;;13.10;99.90;;;;;;4196026;28;20213;-76
2022/02/17 00:22:17;;;;;;;0.00;0.00;;;13.10;99.90;;;;;;4192935;28;20218;-75
2022/02/17 00:24:20;;;;;;;0.40;0.10;;;13.10;99.90;;;;;;4197715;28;20225;-71
2022/02/17 00:26:22;;;;;;;0.10;0.00;;;13.20;99.90;;;;;;4195927;28;20213;-76
2022/02/17 00:28:23;;;;;;;0.20;0.20;;;13.20;99.90;;;;;;4197697;28;20634;-76
2022/02/17 00:30:25;;;;;;;0.10;0.00;;;13.20;99.90;;;;;;4197924;28;20215;-77
2022/02/17 00:32:27;;;;;;;0.10;0.10;;;13.30;99.90;;;;;;4196816;28;20706;-77
2022/02/17 00:34:28;;;;;;;0.10;0.10;;;13.30;99.90;;;;;;4196523;28;20230;-77
2022/02/17 00:36:32;;;;;;;0.10;0.10;;;13.40;99.90;;;;;;4197644;28;20220;-77
2022/02/17 00:38:34;;;;;;;0.13;0.10;;;13.40;99.90;;;;;;4196531;28;20638;-77
2022/02/17 00:40:35;;;;;;;0.30;0.10;;;13.40;99.90;;;;;;4196058;28;20214;-77
2022/02/17 00:42:37;;;;;;;0.10;0.10;;;13.50;99.90;;;;;;4196047;28;20271;-77
2022/02/17 00:44:39;;;;;;;0.00;0.00;;;13.50;99.90;;;;;;4198010;28;20252;-77
2022/02/17 00:46:40;;;;;;;0.00;0.00;;;13.50;99.90;;;;;;4192294;28;20217;-77
2022/02/17 00:48:42;;;;;;;0.83;0.10;;;13.50;99.90;;;;;;4198516;28;20222;-78
2022/02/17 00:50:44;;;;;;;0.10;0.10;;;13.60;99.90;;;;;;4190414;28;20208;-77
2022/02/17 00:52:47;;;;;;;0.00;0.00;;;13.70;99.90;;;;;;4182230;28;20214;-76
2022/02/17 00:54:49;;;;;;;0.93;0.10;;;13.60;99.90;;;;;;4188160;28;20233;-77
2022/02/17 00:56:51;;;;;;;0.10;0.10;;;13.70;99.90;;;;;;4196887;28;20209;-77
2022/02/17 00:58:52;;;;;;;0.43;0.10;;;13.70;99.90;;;;;;4197694;28;20226;-76
2022/02/17 01:00:54;;;;;;;2.83;0.10;;;13.70;99.90;;;;;;4183285;28;20207;-76
2022/02/17 01:02:56;;;;;;;0.10;0.10;;;13.70;99.90;;;;;;4181107;28;20551;-76
2022/02/17 01:04:57;;;;;;;0.20;0.20;;;13.80;99.90;;;;;;4185934;28;20649;-77
2022/02/17 01:06:59;;;;;;;0.60;0.37;;;13.80;99.90;;;;;;4195235;28;21199;-76
2022/02/17 01:09:02;;;;;;;0.10;0.10;;;13.80;99.90;;;;;;4194124;28;20251;-77
2022/02/17 01:11:04;;;;;;;0.10;0.10;;;13.80;99.90;;;;;;4197075;28;20206;-76
2022/02/17 01:13:06;;;;;;;1.77;0.20;;;13.80;99.90;;;;;;4193457;28;20241;-77
2022/02/17 01:15:08;;;;;;;0.77;0.10;;;13.80;99.90;;;;;;4197093;28;20244;-74
2022/02/17 01:17:10;;;;;;;0.30;0.03;;;13.80;99.90;;;;;;4192763;28;20474;-77
2022/02/17 01:19:13;;;;;;;0.33;0.10;;;13.90;99.90;;;;;;4205080;28;20230;-78
2022/02/17 01:21:14;;;;;;;0.00;0.00;;;13.90;99.90;;;;;;4190528;28;20310;-73
2022/02/17 01:23:16;;;;;;;0.60;0.10;;;13.90;99.90;;;;;;4197489;28;20237;-75
2022/02/17 01:25:19;;;;;;;0.70;0.20;;;13.90;99.90;;;;;;4197642;28;20241;-74
2022/02/17 01:27:21;;;;;;;0.10;0.10;;;13.90;99.90;;;;;;4183856;28;20708;-72
2022/02/17 01:29:23;;;;;;;0.10;0.00;;;13.90;99.90;;;;;;4194578;28;20216;-74
2022/02/17 01:31:25;;;;;;;1.60;0.20;;;13.90;99.90;;;;;;4181396;28;20206;-73
2022/02/17 01:33:26;;;;;;;2.30;0.13;;;13.90;99.90;;;;;;4189517;28;20234;-74
2022/02/17 01:35:29;;;;;;;0.10;0.10;;;13.90;99.90;;;;;;4184130;28;20697;-74
2022/02/17 01:37:30;;;;;;;0.67;0.10;;;13.90;99.90;;;;;;4193190;28;20256;-75
2022/02/17 01:39:32;;;;;;;0.13;0.13;;;13.90;99.90;;;;;;4197209;28;20289;-73
2022/02/17 01:41:35;;;;;;;1.00;0.10;;;13.80;99.90;;;;;;4191436;28;20262;-73
2022/02/17 01:43:38;;;;;;;0.17;0.10;;;13.80;99.90;;;;;;4197392;28;20210;-74
2022/02/17 01:45:40;;;;;;;0.50;0.20;;;13.80;99.90;;;;;;4192985;28;20246;-74
2022/02/17 01:47:44;;;;;;;0.30;0.10;;;13.80;99.90;;;;;;4187362;28;20240;-75
2022/02/17 01:49:47;;;;;;;2.37;0.20;;;13.80;99.90;;;;;;4190836;28;20616;-74
2022/02/17 01:51:49;;;;;;;0.40;0.10;;;13.90;99.90;;;;;;4195511;28;20234;-75
2022/02/17 01:53:51;;;;;;;0.20;0.10;;;13.90;99.90;;;;;;4179358;28;20707;-75
2022/02/17 01:55:56;;;;;;;0.20;0.10;;;13.90;99.90;;;;;;4197232;28;20207;-75
2022/02/17 01:57:59;;;;;;;1.07;0.10;;;14.00;99.90;;;;;;4196897;28;20729;-73
2022/02/17 02:00:01;;;;;;;0.03;0.03;;;14.00;99.90;;;;;;4196247;28;20649;-75
2022/02/17 02:02:03;;;;;;;0.60;0.10;;;14.00;99.90;;;;;;4194499;28;20212;-75
2022/02/17 02:04:05;;;;;;;1.60;0.20;;;14.00;99.90;;;;;;4194542;28;20230;-76
2022/02/17 02:06:07;;;;;;;1.40;0.10;;;14.10;99.90;;;;;;4195612;28;20659;-75
2022/02/17 02:08:10;;;;;;;0.10;0.10;;;14.10;99.90;;;;;;4192725;28;20236;-76
2022/02/17 02:10:12;;;;;;;0.20;0.10;;;14.10;99.90;;;;;;4187816;28;20210;-74
2022/02/17 02:12:15;;;;;;;1.17;0.10;;;14.10;99.90;;;;;;4179886;28;20215;-76
2022/02/17 02:14:18;;;;;;;1.53;0.30;;;14.10;99.90;;;;;;4189679;28;20715;-75
2022/02/17 02:16:20;;;;;;;0.47;0.20;;;14.10;99.90;;;;;;4195016;28;20264;-75
2022/02/17 02:18:23;;;;;;;1.00;0.20;;;14.10;99.90;;;;;;4192061;28;20230;-75
2022/02/17 02:20:26;;;;;;;1.13;0.10;;;14.00;99.90;;;;;;4186630;28;20214;-76
2022/02/17 02:22:29;;;;;;;0.97;0.10;;;14.00;99.90;;;;;;4185287;28;20258;-76
2022/02/17 02:24:33;;;;;;;0.10;0.10;;;14.00;99.90;;;;;;4224147;22;20224;-81
2022/02/17 02:26:35;;;;;;;0.50;0.20;;;13.90;99.90;;;;;;4197777;28;20199;-80
2022/02/17 02:28:37;;;;;;;0.60;0.13;;;13.90;99.90;;;;;;4186022;28;20230;-80
2022/02/17 02:30:39;;;;;;;0.20;0.10;;;13.80;99.90;;;;;;4181244;28;20206;-79
2022/02/17 02:32:41;;;;;;;1.37;0.20;;;13.90;99.90;;;;;;4197608;28;20230;-80
2022/02/17 02:34:43;;;;;;;0.10;0.10;;;13.80;99.90;;;;;;4190437;28;20234;-80
2022/02/17 02:36:46;;;;;;;0.43;0.30;;;13.90;99.90;;;;;;4184862;28;20665;-78
2022/02/17 02:38:48;;;;;;;1.13;0.10;;;13.80;99.90;;;;;;4188172;28;20227;-80
2022/02/17 02:40:50;;;;;;;0.30;0.20;;;13.80;99.90;;;;;;4188209;28;20218;-80
2022/02/17 02:42:52;;;;;;;0.20;0.20;;;13.70;99.90;;;;;;4189849;28;20255;-79
2022/02/17 02:44:54;;;;;;;0.10;0.10;;;13.80;99.90;;;;;;4197263;28;20230;-80
2022/02/17 02:46:56;;;;;;;0.20;0.10;;;13.90;99.90;;;;;;4184214;28;20222;-80
2022/02/17 02:48:57;;;;;;;0.37;0.20;;;13.80;99.90;;;;;;4191247;28;20300;-81
2022/02/17 02:50:59;;;;;;;0.30;0.30;;;13.80;99.90;;;;;;4196835;28;20210;-81
2022/02/17 02:53:02;;;;;;;0.67;0.20;;;13.70;99.90;;;;;;4183158;28;20685;-80
2022/02/17 02:55:05;;;;;;;2.20;0.67;;;13.40;99.90;;;;;;4192244;28;20776;-80
2022/02/17 02:57:06;;;;;;;1.43;0.30;;;13.30;99.90;;;;;;4182071;28;20215;-80
2022/02/17 02:59:09;;;;;;;1.30;0.20;;;13.10;99.90;;;;;;4192145;28;20278;-80
2022/02/17 03:01:12;;;;;;;3.97;0.60;;;12.90;99.90;;;;;;4184445;28;20209;-80
2022/02/17 03:03:14;;;;;;;0.77;0.30;;;12.70;99.90;;;;;;4193752;28;20296;-80
2022/02/17 03:05:15;;;;;;;0.70;0.30;;;12.40;99.90;;;;;;4188709;28;20306;-79
2022/02/17 03:07:17;;;;;;;1.70;0.30;;;11.90;99.90;;;;;;4196557;28;20213;-81
2022/02/17 03:09:20;;;;;;;0.97;0.37;;;11.60;99.90;;;;;;4197782;28;20267;-78
2022/02/17 03:11:22;;;;;;;2.27;0.43;;;11.10;99.90;;;;;;4194536;28;20208;-80
2022/02/17 03:13:24;;;;;;;3.23;0.63;;;10.70;99.90;;;;;;4198578;28;20298;-79
2022/02/17 03:15:26;;;;;;;0.60;0.40;;;10.30;99.90;;;;;;4193692;28;20231;-80
2022/02/17 03:17:28;;;;;;;2.00;0.40;;;10.00;99.90;;;;;;4191608;28;20657;-80
2022/02/17 03:19:29;;;;;;;1.20;0.50;;;9.80;99.90;;;;;;4180552;28;20238;-81
2022/02/17 03:21:34;;;;;;;4.07;0.90;;;9.60;99.90;;;;;;4185496;28;20216;-80
2022/02/17 03:23:36;;;;;;;1.47;0.50;;;9.50;99.90;;;;;;4181628;28;20222;-81
2022/02/17 03:25:40;;;;;;;3.30;0.60;;;9.40;99.90;;;;;;4192391;28;20249;-80
2022/02/17 03:27:41;;;;;;;2.10;0.63;;;9.30;99.90;;;;;;4188768;28;20209;-81
2022/02/17 03:29:43;;;;;;;0.73;0.50;;;9.20;99.90;;;;;;4193630;28;20210;-81
2022/02/17 03:31:45;;;;;;;1.77;0.57;;;9.20;99.90;;;;;;4192691;28;20202;-81
2022/02/17 03:33:47;;;;;;;3.03;0.67;;;9.10;99.90;;;;;;4190085;28;20221;-82
2022/02/17 03:35:49;;;;;;;3.23;0.80;;;9.00;99.90;;;;;;4190724;28;20209;-82
2022/02/17 03:37:50;;;;;;;4.97;0.90;;;8.90;99.90;;;;;;4189533;28;20456;-82
2022/02/17 03:39:52;;;;;;;2.10;0.60;;;8.90;99.90;;;;;;4187303;28;20491;-84
2022/02/17 03:41:55;;;;;;;2.63;0.80;;;8.80;99.90;;;;;;4191959;28;20452;-82
2022/02/17 03:43:58;;;;;;;2.20;0.60;;;8.80;99.90;;;;;;4193380;28;20509;-81
2022/02/17 03:45:59;;;;;;;2.37;0.70;;;8.80;99.90;;;;;;4190646;28;20499;-81
2022/02/17 03:48:01;;;;;;;3.27;0.60;;;8.70;99.90;;;;;;4184716;28;20473;-82
2022/02/17 03:50:04;;;;;;;0.90;0.40;;;8.60;99.90;;;;;;4198393;28;20463;-82
2022/02/17 03:52:06;;;;;;;1.80;0.63;;;8.50;99.90;;;;;;4193577;28;20521;-81
2022/02/17 03:54:08;;;;;;;3.30;0.67;;;8.50;99.90;;;;;;4191408;28;20498;-81
2022/02/17 03:56:10;;;;;;;2.37;0.40;;;8.50;99.90;;;;;;4205042;28;20462;-81
2022/02/17 03:59:00;;;;;;;2.43;0.67;;;8.40;99.90;;;;;;4191336;28;20460;-81
2022/02/17 04:00:36;;;;;;;0.60;0.40;;;8.30;99.90;;;;;;4183533;28;20449;-82
2022/02/17 04:02:37;;;;;;;1.40;0.50;;;8.40;99.90;;;;;;4191265;28;20514;-81
2022/02/17 04:04:39;;;;;;;2.43;0.50;;;8.30;99.90;;;;;;4186202;28;20995;-81
2022/02/17 04:06:41;;;;;;;2.90;0.60;;;8.30;99.90;;;;;;4190105;28;20480;-81
2022/02/17 04:08:43;;;;;;;2.13;0.53;;;8.20;99.90;;;;;;4193655;28;20466;-80
2022/02/17 04:10:45;;;;;;;0.67;0.40;;;8.10;99.90;;;;;;4190152;28;20494;-81
2022/02/17 04:12:48;;;;;;;3.90;0.40;;;8.10;99.90;;;;;;4190401;28;20469;-81
2022/02/17 04:14:51;;;;;;;2.40;0.50;;;8.00;99.90;;;;;;4183603;28;20491;-80
2022/02/17 04:16:54;;;;;;;4.20;0.70;;;7.90;99.90;;;;;;4191369;28;20484;-81
2022/02/17 04:18:55;;;;;;;1.73;0.40;;;7.90;99.90;;;;;;4189490;28;20533;-82
2022/02/17 04:20:57;;;;;;;2.17;0.40;;;7.90;99.90;;;;;;4183985;28;20739;-81
2022/02/17 04:22:59;;;;;;;1.27;0.33;;;8.00;99.90;;;;;;4192719;28;20451;-80
2022/02/17 04:25:01;;;;;;;3.90;0.40;;;7.70;99.90;;;;;;4181738;28;20814;-80
2022/02/17 04:27:03;;;;;;;2.23;0.40;;;7.60;99.90;;;;;;4189164;28;20512;-80
2022/02/17 04:29:06;;;;;;;0.67;0.30;;;7.50;99.90;;;;;;4200039;28;20520;-80
2022/02/17 04:31:10;;;;;;;1.63;0.40;;;7.50;99.90;;;;;;4197757;28;20467;-80
2022/02/17 04:33:11;;;;;;;2.77;0.53;;;7.20;99.90;;;;;;4192987;28;20471;-81
2022/02/17 04:35:13;;;;;;;2.67;0.30;;;7.20;99.90;;;;;;4198695;28;20482;-82
2022/02/17 04:37:15;;;;;;;0.80;0.30;;;7.10;99.90;;;;;;4185587;28;20475;-81
2022/02/17 04:39:17;;;;;;;0.87;0.40;;;7.30;99.90;;;;;;4184039;28;21064;-81
2022/02/17 04:43:38;;;;;;;1.60;0.40;;;7.00;99.90;;;;;;4189566;28;20676;-82
2022/02/17 04:45:40;;;;;;;0.70;0.20;;;7.00;99.90;;;;;;4189395;28;20487;-82
2022/02/17 04:47:43;;;;;;;1.80;0.60;;;7.00;99.90;;;;;;4194183;28;20458;-82
2022/02/17 04:49:45;;;;;;;1.60;0.20;;;7.10;99.90;;;;;;4191638;28;20497;-82
2022/02/17 04:51:47;;;;;;;2.73;0.30;;;7.00;99.90;;;;;;4195614;28;20462;-82
2022/02/17 04:53:49;;;;;;;1.23;0.40;;;7.00;99.90;;;;;;4190405;28;20548;-82
2022/02/17 04:55:50;;;;;;;0.93;0.50;;;7.00;99.90;;;;;;4196725;28;20465;-82
2022/02/17 04:57:52;;;;;;;1.60;0.50;;;7.10;99.90;;;;;;4193974;28;21032;-82
2022/02/17 04:59:54;;;;;;;0.70;0.40;;;7.00;99.90;;;;;;4189670;28;20508;-82
2022/02/17 05:01:56;;;;;;;3.67;0.67;;;7.00;99.90;;;;;;4189386;28;20473;-82
2022/02/17 05:03:59;;;;;;;1.40;0.50;;;7.00;99.90;;;;;;4194616;28;20455;-82
2022/02/17 05:06:02;;;;;;;5.27;0.83;;;7.00;99.90;;;;;;4184652;28;20522;-82
2022/02/17 05:08:04;;;;;;;2.33;0.73;;;7.00;99.90;;;;;;4189236;28;20506;-82
2022/02/17 05:10:06;;;;;;;4.20;0.60;;;7.00;99.90;;;;;;4194512;28;20447;-82
2022/02/17 05:12:08;;;;;;;0.77;0.37;;;7.00;99.90;;;;;;4197489;28;20491;-82
2022/02/17 05:14:10;;;;;;;1.60;0.70;;;7.00;99.90;;;;;;4194165;28;20535;-82
2022/02/17 05:16:12;;;;;;;2.13;0.60;;;7.00;99.90;;;;;;4196502;28;21017;-82
2022/02/17 05:18:14;;;;;;;1.77;0.60;;;7.00;99.90;;;;;;4194803;28;20495;-82
2022/02/17 05:20:18;;;;;;;0.43;0.40;;;7.10;99.90;;;;;;4185927;28;20483;-82
2022/02/17 05:22:19;;;;;;;0.83;0.30;;;7.00;99.90;;;;;;4184099;28;20479;-82
2022/02/17 05:24:21;;;;;;;3.13;0.60;;;7.00;99.90;;;;;;4190082;28;20496;-82
2022/02/17 05:26:23;;;;;;;3.50;0.70;;;7.10;99.90;;;;;;4189956;28;20469;-83
2022/02/17 05:28:25;;;;;;;2.30;0.47;;;7.00;99.90;;;;;;4190856;28;20475;-82
2022/02/17 05:30:27;;;;;;;3.50;0.50;;;7.10;99.90;;;;;;4190210;28;20472;-83
2022/02/17 05:32:29;;;;;;;3.97;1.03;;;7.20;99.90;;;;;;4191925;28;20461;-82
2022/02/17 05:34:31;;;;;;;1.47;0.40;;;7.10;99.90;;;;;;4195683;28;20480;-83
2022/02/17 05:36:34;;;;;;;3.23;0.60;;;7.10;99.90;;;;;;4200241;28;20928;-80
2022/02/17 05:38:36;;;;;;;3.60;0.60;;;7.00;99.90;;;;;;4191483;28;20486;-82
2022/02/17 05:40:38;;;;;;;1.90;0.90;;;7.00;99.90;;;;;;4186409;28;20499;-82
2022/02/17 05:42:42;;;;;;;2.77;0.57;;;7.00;99.90;;;;;;4195520;28;20948;-80
2022/02/17 05:44:44;;;;;;;1.20;0.43;;;6.90;99.90;;;;;;4199165;28;20471;-80
2022/02/17 05:46:47;;;;;;;1.47;0.77;;;6.90;99.90;;;;;;4197152;28;20530;-80
2022/02/17 05:48:49;;;;;;;3.33;0.60;;;6.90;99.90;;;;;;4190583;28;20541;-80
2022/02/17 05:50:51;;;;;;;3.63;0.67;;;6.90;99.90;;;;;;4194161;28;20479;-80
2022/02/17 05:52:54;;;;;;;2.73;0.53;;;6.90;99.90;;;;;;4188229;28;20872;-80
2022/02/17 05:54:56;;;;;;;1.37;0.60;;;6.90;99.90;;;;;;4199682;28;20486;-81
2022/02/17 05:56:58;;;;;;;3.60;0.83;;;7.10;99.90;;;;;;4198194;28;20470;-80
2022/02/17 05:59:00;;;;;;;4.77;0.70;;;6.90;99.90;;;;;;4194076;28;20447;-80
2022/02/17 06:01:01;;;;;;;4.07;0.80;;;6.90;99.90;;;;;;4191242;28;20487;-80
2022/02/17 06:03:03;;;;;;;3.50;0.60;;;6.90;99.90;;;;;;4190876;28;20455;-80
2022/02/17 06:05:06;;;;;;;2.90;0.50;;;6.90;99.90;;;;;;4189713;28;21002;-80
2022/02/17 06:07:08;;;;;;;4.33;0.83;;;6.80;99.90;;;;;;4193754;28;20858;-80
2022/02/17 06:09:11;;;;;;;1.10;0.60;;;6.80;99.90;;;;;;4189794;28;20910;-80
2022/02/17 06:11:12;;;;;;;2.40;0.50;;;6.70;99.90;;;;;;4189945;28;20459;-80
2022/02/17 06:13:14;;;;;;;3.83;0.67;;;6.60;99.90;;;;;;4190883;28;20497;-79
2022/02/17 06:15:18;;;;;;;6.63;0.80;;;6.50;99.90;;;;;;4185019;28;20914;-79
2022/02/17 06:17:19;;;;;;;2.87;0.50;;;6.40;99.90;;;;;;4187040;28;20546;-79
2022/02/17 06:19:21;;;;;;;1.00;0.50;;;6.30;99.90;;;;;;4191448;28;20452;-80
2022/02/17 06:21:23;;;;;;;2.53;0.60;;;6.30;99.90;;;;;;4184053;28;20482;-81
2022/02/17 06:23:25;;;;;;;4.57;0.60;;;6.20;99.90;;;;;;4180986;28;20471;-81
2022/02/17 06:25:28;;;;;;;4.57;0.73;;;6.10;99.90;;;;;;4193323;28;20571;-80
2022/02/17 06:27:30;;;;;;;3.10;0.70;;;6.10;99.90;;;;;;4184925;28;20966;-79
2022/02/17 06:29:32;;;;;;;1.23;0.60;;;6.10;99.90;;;;;;4189368;28;20542;-80
2022/02/17 06:31:34;;;;;;;3.73;0.70;;;6.10;99.90;;;;;;4188860;28;20478;-80
2022/02/17 06:33:36;;;;;;;2.37;0.80;;;6.10;99.90;;;;;;4189952;28;20501;-81
2022/02/17 06:35:38;;;;;;;3.73;1.03;;;6.30;99.90;;;;;;4190432;28;21074;-81
2022/02/17 06:37:40;;;;;;;3.97;0.87;;;6.10;99.90;;;;;;4184503;28;20966;-81
2022/02/17 06:39:42;;;;;;;3.00;0.83;;;6.10;99.90;;;;;;4190285;28;20473;-79
2022/02/17 06:41:45;;;;;;;1.80;0.60;;;6.10;99.90;;;;;;4184134;28;20982;-79
2022/02/17 06:43:47;;;;;;;9.33;0.80;;;6.00;99.90;;;;;;4187204;28;20448;-79
2022/02/17 06:45:48;;;;;;;4.00;0.70;;;6.00;99.90;;;;;;4185652;28;20474;-80
2022/02/17 06:47:50;;;;;;;2.83;0.40;;;6.00;99.90;;;;;;4188093;28;20965;-80
2022/02/17 06:49:52;;;;;;;1.53;0.40;;;6.00;99.90;;;;;;4188420;28;20450;-80
2022/02/17 06:51:54;;;;;;;2.57;0.60;;;6.40;99.90;;;;;;4188226;28;20479;-80
2022/02/17 06:53:55;;;;;;;5.57;0.50;;;5.90;99.90;;;;;;4184582;28;20445;-81
2022/02/17 06:55:57;;;;;;;2.03;0.60;;;5.80;99.90;;;;;;4184809;28;20459;-80
2022/02/17 06:58:00;;;;;;;3.57;0.60;;;5.80;99.90;;;;;;4187842;28;20468;-81
2022/02/17 07:00:03;;;;;;;3.00;0.50;;;5.80;99.90;;;;;;4186203;28;20481;-81
2022/02/17 07:02:05;;;;;;;2.67;0.60;;;5.80;99.90;;;;;;4182973;28;20470;-82
2022/02/17 07:04:08;;;;;;;5.43;0.60;;;5.80;99.90;;;;;;4185406;28;20467;-80
2022/02/17 07:06:10;;;;;;;3.80;0.67;;;5.80;99.90;;;;;;4184783;28;20502;-81
2022/02/17 07:08:12;;;;;;;4.13;0.53;;;5.80;99.90;;;;;;4184475;28;20468;-80
2022/02/17 07:10:14;;;;;;;4.40;0.73;;;5.80;99.90;;;;;;4182526;28;20508;-82
2022/02/17 07:12:16;;;;;;;2.03;0.57;;;5.80;99.90;;;;;;4185782;28;20479;-83
2022/02/17 07:14:20;;;;;;;4.90;0.80;;;5.90;99.90;;;;;;4184274;28;20479;-81
2022/02/17 07:16:22;;;;;;;2.00;0.50;;;5.90;99.90;;;;;;4191495;28;20545;-80
2022/02/17 07:18:25;;;;;;;1.40;0.50;;;5.90;99.90;;;;;;4191675;28;20480;-80
2022/02/17 07:20:27;;;;;;;1.97;0.60;;;5.80;99.90;;;;;;4191933;28;20990;-81
2022/02/17 07:22:29;;;;;;;4.40;0.50;;;6.00;99.90;;;;;;4192142;28;20888;-80
2022/02/17 07:24:31;;;;;;;2.57;0.77;;;6.00;99.90;;;;;;4193167;28;20533;-79
2022/02/17 07:26:32;;;;;;;3.53;0.90;;;6.00;99.90;;;;;;4192286;28;20963;-79
2022/02/17 07:28:36;;;;;;;1.80;0.60;;;6.30;99.90;;;;;;4189363;28;20829;-80
2022/02/17 07:30:39;;;;;;;2.93;0.60;;;6.00;99.90;;;;;;4189040;28;20460;-80
2022/02/17 07:32:41;;;;;;;3.90;0.60;;;6.00;99.90;;;;;;4189593;28;21120;-80
2022/02/17 07:34:43;;;;;;;2.00;0.50;;;6.40;99.90;;;;;;4194260;28;20498;-80
2022/02/17 07:36:44;;;;;;;3.83;0.63;;;6.10;99.90;;;;;;4192298;28;20462;-80
2022/02/17 07:38:46;;;;;;;2.67;0.50;;;6.00;99.90;;;;;;4191160;28;20491;-81
2022/02/17 07:40:48;;;;;;;1.40;0.40;;;6.10;99.90;;;;;;4191825;28;20498;-80
2022/02/17 07:42:50;;;;;;;1.10;0.30;;;6.00;99.90;;;;;;4196359;28;20452;-82
2022/02/17 07:44:56;;;;;;;1.93;0.50;;;6.10;99.90;;;;;;4194395;28;20551;-80
2022/02/17 07:46:59;;;;;;;2.03;0.40;;;6.10;99.90;;;;;;4193609;28;20854;-81
2022/02/17 07:49:01;;;;;;;1.03;0.30;;;6.10;99.90;;;;;;4180196;28;21914;-80
2022/02/17 07:51:03;;;;;;;2.53;0.30;;;6.00;99.90;;;;;;4189892;28;20526;-80
2022/02/17 07:53:05;;;;;;;2.03;0.47;;;6.00;99.90;;;;;;4190535;28;20892;-80
2022/02/17 07:55:08;;;;;;;3.60;0.57;;;6.00;99.90;;;;;;4189369;28;20477;-79
2022/02/17 07:57:10;;;;;;;1.77;0.47;;;6.00;99.90;;;;;;4189477;28;20497;-80
2022/02/17 07:59:11;;;;;;;4.47;0.50;;;6.00;99.90;;;;;;4191092;28;20543;-80
2022/02/17 08:01:13;;;;;;;3.77;0.70;;;6.10;99.90;;;;;;4192993;28;21001;-81
2022/02/17 08:03:17;;;;;;;3.00;0.67;;;6.00;99.90;;;;;;4190722;28;20484;-80
2022/02/17 08:05:19;;;;;;;4.33;0.67;;;6.40;99.90;;;;;;4186588;28;20573;-81
2022/02/17 08:07:21;;;;;;;2.77;0.50;;;5.90;99.90;;;;;;4192371;28;20451;-79
2022/02/17 08:09:23;;;;;;;6.03;0.87;;;5.90;99.90;;;;;;4188203;28;20470;-85
2022/02/17 08:11:25;;;;;;;1.83;0.50;;;6.00;99.90;;;;;;4189866;28;20517;-80
2022/02/17 08:13:27;;;;;;;3.53;0.77;;;5.90;99.90;;;;;;4190873;28;20455;-81
2022/02/17 08:15:29;;;;;;;6.20;1.10;;;6.00;99.90;;;;;;4189289;28;20978;-82
2022/02/17 08:17:30;;;;;;;5.60;0.93;;;6.00;99.90;;;;;;4192041;28;21046;-80
2022/02/17 08:19:35;;;;;;;2.53;0.63;;;6.00;99.90;;;;;;4191652;28;20458;-80
2022/02/17 08:21:36;;;;;;;6.77;1.03;;;5.90;99.90;;;;;;4191553;28;20491;-80
2022/02/17 08:23:38;;;;;;;4.20;1.03;;;6.00;99.90;;;;;;4191470;28;20546;-79
2022/02/17 08:25:41;;;;;;;3.63;0.97;;;6.00;99.90;;;;;;4213946;22;20501;-73
2022/02/17 08:27:43;;;;;;;3.77;1.00;;;6.00;99.90;;;;;;4190695;28;20519;-75
2022/02/17 08:29:44;;;;;;;7.33;0.93;;;6.10;99.90;;;;;;4190464;28;21026;-75
2022/02/17 08:31:49;;;;;;;7.17;1.20;;;6.20;99.90;;;;;;4191914;28;20931;-73
2022/02/17 08:33:51;;;;;;;6.00;1.20;;;6.20;99.90;;;;;;4189500;28;20983;-75
2022/02/17 08:35:54;;;;;;;4.53;0.97;;;6.30;99.90;;;;;;4188724;28;20484;-75
2022/02/17 08:37:56;;;;;;;6.50;1.37;;;6.40;99.90;;;;;;4190917;28;20458;-72
2022/02/17 08:39:58;;;;;;;6.47;0.87;;;6.40;99.90;;;;;;4187169;28;20517;-74
2022/02/17 08:42:00;;;;;;;10.00;1.20;;;6.40;99.90;;;;;;4190092;28;20544;-74
2022/02/17 08:44:02;;;;;;;11.90;1.13;;;6.40;99.90;;;;;;4187755;28;20473;-74
2022/02/17 08:46:04;;;;;;;7.03;1.27;;;6.50;99.90;;;;;;4185968;28;20502;-75
2022/02/17 08:48:06;;;;;;;8.10;1.20;;;6.40;99.90;;;;;;4189380;28;20490;-75
2022/02/17 08:50:10;;;;;;;7.93;1.83;;;6.50;99.90;;;;;;4189424;28;20483;-74
2022/02/17 08:52:13;;;;;;;5.83;1.10;;;6.50;99.90;;;;;;4189970;28;20463;-73
2022/02/17 08:54:15;;;;;;;8.50;1.20;;;6.50;99.90;;;;;;4188791;28;20881;-72
2022/02/17 08:56:17;;;;;;;6.23;1.20;;;6.60;99.90;;;;;;4190107;28;21382;-75
2022/02/17 08:58:19;;;;;;;4.60;0.80;;;6.60;99.90;;;;;;4187877;28;20476;-74
2022/02/17 09:00:21;;;;;;;7.50;0.93;;;6.70;99.90;;;;;;4187966;28;20494;-74
2022/02/17 09:02:22;;;;;;;2.43;0.80;;;6.70;99.90;;;;;;4189667;28;20520;-73
2022/02/17 09:04:24;;;;;;;5.00;0.70;;;6.60;99.90;;;;;;4190592;28;20809;-74
2022/02/17 09:06:26;;;;;;;3.60;0.63;;;6.70;99.90;;;;;;4188818;28;20455;-75
2022/02/17 09:08:29;;;;;;;6.13;1.07;;;6.70;99.90;;;;;;4190444;28;20472;-71
2022/02/17 09:10:33;;;;;;;2.33;0.67;;;6.80;99.90;;;;;;4189067;28;20486;-74
2022/02/17 09:12:36;;;;;;;2.60;0.60;;;6.80;99.90;;;;;;4187361;28;20954;-72
2022/02/17 09:14:39;;;;;;;3.43;0.70;;;6.70;99.90;;;;;;4187931;28;20480;-76
2022/02/17 09:16:41;;;;;;;1.03;0.50;;;6.70;99.90;;;;;;4186525;28;20491;-73
2022/02/17 09:18:43;;;;;;;6.30;1.13;;;6.70;99.90;;;;;;4185757;28;20221;-74
2022/02/17 09:20:45;;;;;;;2.23;0.43;;;6.70;99.90;;;;;;4189012;28;20494;-77
2022/02/17 09:22:46;;;;;;;1.10;0.80;;;6.60;99.90;;;;;;4189880;28;20460;-75
2022/02/17 09:24:49;;;;;;;1.17;0.40;;;6.60;99.90;;;;;;4187173;28;20526;-75
2022/02/17 09:26:51;;;;;;;1.53;0.50;;;6.60;99.90;;;;;;4187103;28;20532;-73
2022/02/17 09:28:53;;;;;;;5.00;1.20;;;6.60;99.90;;;;;;4186847;28;20464;-75
2022/02/17 09:30:55;;;;;;;2.83;0.63;;;6.60;99.90;;;;;;4187375;28;20465;-77
2022/02/17 09:32:57;;;;;;;2.40;0.60;;;6.60;99.90;;;;;;4184860;28;20968;-76
2022/02/17 09:34:59;;;;;;;3.03;0.70;;;6.70;99.90;;;;;;4186236;28;20517;-75
2022/02/17 09:37:01;;;;;;;2.63;0.80;;;6.70;99.90;;;;;;4185948;28;20465;-74
2022/02/17 09:39:03;;;;;;;2.67;0.80;;;6.70;99.90;;;;;;4185324;28;20471;-75
2022/02/17 09:41:16;;;;;;;1.20;0.50;;;6.70;99.90;;;;;;4186723;28;20882;-76
2022/02/17 09:43:18;;;;;;;1.27;0.37;;;6.70;99.90;;;;;;4187917;28;20465;-76
2022/02/17 09:45:20;;;;;;;0.20;0.20;;;6.80;99.90;;;;;;4187026;28;20495;-76
2022/02/17 09:47:24;;;;;;;1.37;0.30;;;6.70;99.90;;;;;;4189070;28;20468;-77
2022/02/17 09:49:26;;;;;;;1.93;0.33;;;6.80;99.90;;;;;;4191233;28;20499;-76
2022/02/17 09:51:32;;;;;;;2.97;0.33;;;6.70;99.90;;;;;;4189425;28;20450;-74
2022/02/17 09:53:34;;;;;;;2.93;0.57;;;6.90;99.90;;;;;;4189951;28;20475;-74
2022/02/17 09:55:36;;;;;;;3.30;0.50;;;6.70;99.90;;;;;;4188638;28;20480;-73
2022/02/17 09:57:39;;;;;;;1.73;0.60;;;6.70;99.90;;;;;;4186671;28;20467;-75
2022/02/17 09:59:42;;;;;;;3.83;0.63;;;6.70;99.90;;;;;;4186908;28;20946;-73
2022/02/17 10:01:53;;;;;;;5.70;0.67;;;6.70;99.90;;;;;;4189816;28;20499;-75
2022/02/17 10:04:22;;;;;;;3.10;0.80;;;6.60;99.90;;;;;;4185999;28;20473;-75
2022/02/17 10:06:23;;;;;;;4.40;0.80;;;6.60;99.90;;;;;;4170008;28;20499;-75
2022/02/17 10:08:25;;;;;;;4.33;1.30;;;6.60;99.90;;;;;;4189896;28;20452;-73
2022/02/17 10:10:40;;;;;;;5.13;1.00;;;6.50;99.90;;;;;;4186548;28;20471;-74
2022/02/17 10:12:59;;;;;;;4.10;0.73;;;6.50;99.90;;;;;;4186484;28;20464;-73
2022/02/17 10:15:00;;;;;;;2.53;0.80;;;6.50;99.90;;;;;;4186600;28;20581;-74
2022/02/17 10:17:05;;;;;;;2.93;1.00;;;6.50;99.90;;;;;;4187472;28;20459;-75
2022/02/17 10:19:11;;;;;;;4.57;0.70;;;6.60;99.90;;;;;;4186178;28;20565;-74
2022/02/17 10:21:15;;;;;;;4.40;0.80;;;6.70;99.90;;;;;;4186601;28;20586;-75
2022/02/17 10:23:17;;;;;;;3.77;0.80;;;6.70;99.90;;;;;;4186242;28;20464;-74
2022/02/17 10:25:20;;;;;;;4.60;0.97;;;6.80;99.90;;;;;;4188452;28;20488;-75
2022/02/17 10:27:23;;;;;;;6.53;0.90;;;6.80;99.90;;;;;;4185661;28;20961;-74
2022/02/17 10:29:26;;;;;;;5.57;0.80;;;6.90;99.90;;;;;;4189702;28;20456;-75
2022/02/17 10:31:30;;;;;;;8.43;1.00;;;7.00;99.90;;;;;;4183762;28;20470;-74
2022/02/17 10:33:42;;;;;;;9.40;0.97;;;7.00;99.90;;;;;;4187040;28;20892;-73
2022/02/17 10:35:53;;;;;;;4.60;0.90;;;7.10;99.90;;;;;;4185320;28;20486;-75
2022/02/17 10:37:57;;;;;;;5.13;1.10;;;7.10;99.90;;;;;;4185674;28;20471;-75
2022/02/17 10:40:16;;;;;;;5.40;0.97;;;7.20;99.90;;;;;;4188086;28;20210;-75
2022/02/17 10:42:17;;;;;;;4.27;0.87;;;7.30;99.90;;;;;;4187256;28;20503;-76
2022/02/17 10:44:21;;;;;;;4.80;0.90;;;7.30;99.90;;;;;;4186739;28;20819;-74
2022/02/17 10:46:35;;;;;;;5.10;1.00;;;7.30;99.90;;;;;;4189487;28;20897;-73